sensor_id;sensor_type;location;lat;lon;timestamp;temperature;humidity
30148;DHT22;16960;49.404;8.248;2023-08-31T00:02:09;23.60;48.60
30148;DHT22;16960;49.404;8.248;2023-08-31T00:04:35;23.60;48.60
30148;DHT22;16960;49.404;8.248;2023-08-31T00:07:03;23.60;48.70
30148;DHT22;16960;49.404;8.248;2023-08-31T00:09:30;23.60;48.70
30148;DHT22;16960;49.404;8.248;2023-08-31T00:11:58;23.60;48.80
30148;DHT22;16960;49.404;8.248;2023-08-31T00:14:25;23.60;48.80
30148;DHT22;16960;49.404;8.248;2023-08-31T00:16:52;23.50;48.90
30148;DHT22;16960;49.404;8.248;2023-08-31T00:19:19;23.50;48.90
30148;DHT22;16960;49.404;8.248;2023-08-31T00:21:46;23.50;48.80
30148;DHT22;16960;49.404;8.248;2023-08-31T00:24:14;23.50;48.80
30148;DHT22;16960;49.404;8.248;2023-08-31T00:26:41;23.50;48.80
30148;DHT22;16960;49.404;8.248;2023-08-31T00:29:09;23.50;48.80
30148;DHT22;16960;49.404;8.248;2023-08-31T00:31:38;23.50;48.70
30148;DHT22;16960;49.404;8.248;2023-08-31T00:34:05;23.50;48.80
30148;DHT22;16960;49.404;8.248;2023-08-31T00:36:32;23.50;48.90
30148;DHT22;16960;49.404;8.248;2023-08-31T00:39:03;23.50;48.80
30148;DHT22;16960;49.404;8.248;2023-08-31T00:41:31;23.40;48.80
30148;DHT22;16960;49.404;8.248;2023-08-31T00:43:58;23.50;49.00
30148;DHT22;16960;49.404;8.248;2023-08-31T00:46:26;23.50;49.00
30148;DHT22;16960;49.404;8.248;2023-08-31T00:48:54;23.40;48.80
30148;DHT22;16960;49.404;8.248;2023-08-31T00:51:22;23.40;48.90
30148;DHT22;16960;49.404;8.248;2023-08-31T00:53:49;23.40;48.80
30148;DHT22;16960;49.404;8.248;2023-08-31T00:56:19;23.40;48.80
30148;DHT22;16960;49.404;8.248;2023-08-31T00:58:46;23.40;48.70
30148;DHT22;16960;49.404;8.248;2023-08-31T01:01:20;23.40;48.70
30148;DHT22;16960;49.404;8.248;2023-08-31T01:03:54;23.40;48.70
30148;DHT22;16960;49.404;8.248;2023-08-31T01:06:32;23.40;48.70
30148;DHT22;16960;49.404;8.248;2023-08-31T01:09:11;23.40;48.70
30148;DHT22;16960;49.404;8.248;2023-08-31T01:11:49;23.40;48.60
30148;DHT22;16960;49.404;8.248;2023-08-31T01:14:20;23.40;48.50
30148;DHT22;16960;49.404;8.248;2023-08-31T01:16:50;23.40;48.70
30148;DHT22;16960;49.404;8.248;2023-08-31T01:19:31;23.30;48.80
30148;DHT22;16960;49.404;8.248;2023-08-31T01:22:05;23.30;48.80
30148;DHT22;16960;49.404;8.248;2023-08-31T01:24:34;23.30;48.90
30148;DHT22;16960;49.404;8.248;2023-08-31T01:27:01;23.30;48.90
30148;DHT22;16960;49.404;8.248;2023-08-31T01:29:29;23.30;49.00
30148;DHT22;16960;49.404;8.248;2023-08-31T01:32:05;23.30;49.00
30148;DHT22;16960;49.404;8.248;2023-08-31T01:34:32;23.30;49.10
30148;DHT22;16960;49.404;8.248;2023-08-31T01:37:03;23.30;49.20
30148;DHT22;16960;49.404;8.248;2023-08-31T01:39:37;23.30;49.30
30148;DHT22;16960;49.404;8.248;2023-08-31T01:42:08;23.20;49.20
30148;DHT22;16960;49.404;8.248;2023-08-31T01:44:39;23.30;49.30
30148;DHT22;16960;49.404;8.248;2023-08-31T01:47:07;23.30;49.30
30148;DHT22;16960;49.404;8.248;2023-08-31T01:49:37;23.30;49.10
30148;DHT22;16960;49.404;8.248;2023-08-31T01:52:05;23.30;49.20
30148;DHT22;16960;49.404;8.248;2023-08-31T01:54:34;23.30;49.30
30148;DHT22;16960;49.404;8.248;2023-08-31T01:57:03;23.30;49.40
30148;DHT22;16960;49.404;8.248;2023-08-31T01:59:31;23.30;49.50
30148;DHT22;16960;49.404;8.248;2023-08-31T02:01:58;23.20;49.40
30148;DHT22;16960;49.404;8.248;2023-08-31T02:04:25;23.20;49.40
30148;DHT22;16960;49.404;8.248;2023-08-31T02:06:52;23.20;49.40
30148;DHT22;16960;49.404;8.248;2023-08-31T02:09:19;23.20;49.40
30148;DHT22;16960;49.404;8.248;2023-08-31T02:11:48;23.20;49.40
30148;DHT22;16960;49.404;8.248;2023-08-31T02:14:14;23.20;49.50
30148;DHT22;16960;49.404;8.248;2023-08-31T02:16:41;23.20;49.50
30148;DHT22;16960;49.404;8.248;2023-08-31T02:19:08;23.20;49.50
30148;DHT22;16960;49.404;8.248;2023-08-31T02:21:35;23.20;49.50
30148;DHT22;16960;49.404;8.248;2023-08-31T02:24:02;23.20;49.50
30148;DHT22;16960;49.404;8.248;2023-08-31T02:26:29;23.20;49.50
30148;DHT22;16960;49.404;8.248;2023-08-31T02:28:58;23.20;49.50
30148;DHT22;16960;49.404;8.248;2023-08-31T02:31:25;23.20;49.50
30148;DHT22;16960;49.404;8.248;2023-08-31T02:33:52;23.20;49.50
30148;DHT22;16960;49.404;8.248;2023-08-31T02:36:19;23.20;49.60
30148;DHT22;16960;49.404;8.248;2023-08-31T02:38:46;23.20;49.60
30148;DHT22;16960;49.404;8.248;2023-08-31T02:41:15;23.20;49.60
30148;DHT22;16960;49.404;8.248;2023-08-31T02:43:42;23.20;49.60
30148;DHT22;16960;49.404;8.248;2023-08-31T02:46:10;23.20;49.70
30148;DHT22;16960;49.404;8.248;2023-08-31T02:48:38;23.20;49.70
30148;DHT22;16960;49.404;8.248;2023-08-31T02:51:05;23.20;49.70
30148;DHT22;16960;49.404;8.248;2023-08-31T02:53:32;23.20;49.70
30148;DHT22;16960;49.404;8.248;2023-08-31T02:55:59;23.10;49.70
30148;DHT22;16960;49.404;8.248;2023-08-31T02:58:25;23.20;49.70
30148;DHT22;16960;49.404;8.248;2023-08-31T03:00:52;23.20;49.80
30148;DHT22;16960;49.404;8.248;2023-08-31T03:03:21;23.10;49.80
30148;DHT22;16960;49.404;8.248;2023-08-31T03:05:48;23.10;49.70
30148;DHT22;16960;49.404;8.248;2023-08-31T03:08:14;23.10;49.70
30148;DHT22;16960;49.404;8.248;2023-08-31T03:10:41;23.10;49.80
30148;DHT22;16960;49.404;8.248;2023-08-31T03:13:08;23.10;49.80
30148;DHT22;16960;49.404;8.248;2023-08-31T03:15:35;23.10;49.80
30148;DHT22;16960;49.404;8.248;2023-08-31T03:18:02;23.10;49.70
30148;DHT22;16960;49.404;8.248;2023-08-31T03:20:31;23.10;49.70
30148;DHT22;16960;49.404;8.248;2023-08-31T03:22:58;23.10;49.70
30148;DHT22;16960;49.404;8.248;2023-08-31T03:25:24;23.10;49.70
30148;DHT22;16960;49.404;8.248;2023-08-31T03:27:53;23.10;49.70
30148;DHT22;16960;49.404;8.248;2023-08-31T03:30:20;23.10;49.60
30148;DHT22;16960;49.404;8.248;2023-08-31T03:32:47;23.10;49.60
30148;DHT22;16960;49.404;8.248;2023-08-31T03:35:14;23.10;49.60
30148;DHT22;16960;49.404;8.248;2023-08-31T03:37:43;23.10;49.70
30148;DHT22;16960;49.404;8.248;2023-08-31T03:40:13;23.10;49.60
30148;DHT22;16960;49.404;8.248;2023-08-31T03:42:40;23.10;49.60
30148;DHT22;16960;49.404;8.248;2023-08-31T03:45:08;23.00;49.40
30148;DHT22;16960;49.404;8.248;2023-08-31T03:47:35;23.00;49.40
30148;DHT22;16960;49.404;8.248;2023-08-31T03:50:01;23.00;49.50
30148;DHT22;16960;49.404;8.248;2023-08-31T03:52:29;23.00;49.50
30148;DHT22;16960;49.404;8.248;2023-08-31T03:54:58;23.10;49.60
30148;DHT22;16960;49.404;8.248;2023-08-31T03:57:25;23.00;49.50
30148;DHT22;16960;49.404;8.248;2023-08-31T03:59:52;23.00;49.50
30148;DHT22;16960;49.404;8.248;2023-08-31T04:02:19;23.00;49.40
30148;DHT22;16960;49.404;8.248;2023-08-31T04:04:46;23.00;49.30
30148;DHT22;16960;49.404;8.248;2023-08-31T04:07:12;23.00;49.30
30148;DHT22;16960;49.404;8.248;2023-08-31T04:09:39;22.90;49.30
30148;DHT22;16960;49.404;8.248;2023-08-31T04:12:08;23.00;49.30
30148;DHT22;16960;49.404;8.248;2023-08-31T04:14:35;23.00;49.40
30148;DHT22;16960;49.404;8.248;2023-08-31T04:17:02;22.90;49.40
30148;DHT22;16960;49.404;8.248;2023-08-31T04:19:30;22.90;49.40
30148;DHT22;16960;49.404;8.248;2023-08-31T04:21:57;22.90;49.30
30148;DHT22;16960;49.404;8.248;2023-08-31T04:24:24;22.90;49.20
30148;DHT22;16960;49.404;8.248;2023-08-31T04:26:51;22.90;49.20
30148;DHT22;16960;49.404;8.248;2023-08-31T04:29:19;22.90;49.20
30148;DHT22;16960;49.404;8.248;2023-08-31T04:31:46;22.90;49.30
30148;DHT22;16960;49.404;8.248;2023-08-31T04:34:13;22.90;49.40
30148;DHT22;16960;49.404;8.248;2023-08-31T04:36:41;22.90;49.50
30148;DHT22;16960;49.404;8.248;2023-08-31T04:39:08;22.90;49.50
30148;DHT22;16960;49.404;8.248;2023-08-31T04:41:35;22.90;49.60
30148;DHT22;16960;49.404;8.248;2023-08-31T04:44:02;22.90;49.70
30148;DHT22;16960;49.404;8.248;2023-08-31T04:46:30;22.90;49.60
30148;DHT22;16960;49.404;8.248;2023-08-31T04:48:58;22.80;49.60
30148;DHT22;16960;49.404;8.248;2023-08-31T04:51:32;22.90;49.70
30148;DHT22;16960;49.404;8.248;2023-08-31T04:53:59;22.90;49.70
30148;DHT22;16960;49.404;8.248;2023-08-31T04:56:30;22.90;49.70
30148;DHT22;16960;49.404;8.248;2023-08-31T04:58:57;22.80;49.60
30148;DHT22;16960;49.404;8.248;2023-08-31T05:01:24;22.90;49.70
30148;DHT22;16960;49.404;8.248;2023-08-31T05:03:52;22.90;49.70
30148;DHT22;16960;49.404;8.248;2023-08-31T05:06:19;22.90;49.70
30148;DHT22;16960;49.404;8.248;2023-08-31T05:08:46;22.80;49.70
30148;DHT22;16960;49.404;8.248;2023-08-31T05:11:13;22.90;49.80
30148;DHT22;16960;49.404;8.248;2023-08-31T05:13:40;22.80;49.70
30148;DHT22;16960;49.404;8.248;2023-08-31T05:16:08;22.80;49.80
30148;DHT22;16960;49.404;8.248;2023-08-31T05:18:35;22.80;49.80
30148;DHT22;16960;49.404;8.248;2023-08-31T05:21:04;22.80;49.80
30148;DHT22;16960;49.404;8.248;2023-08-31T05:23:31;22.80;49.80
30148;DHT22;16960;49.404;8.248;2023-08-31T05:25:58;22.80;49.80
30148;DHT22;16960;49.404;8.248;2023-08-31T05:28:27;22.80;49.90
30148;DHT22;16960;49.404;8.248;2023-08-31T05:30:56;22.80;49.80
30148;DHT22;16960;49.404;8.248;2023-08-31T05:33:24;22.80;49.90
30148;DHT22;16960;49.404;8.248;2023-08-31T05:35:53;22.80;49.80
30148;DHT22;16960;49.404;8.248;2023-08-31T05:38:21;22.80;49.80
30148;DHT22;16960;49.404;8.248;2023-08-31T05:40:49;22.80;49.90
30148;DHT22;16960;49.404;8.248;2023-08-31T05:43:16;22.80;50.00
30148;DHT22;16960;49.404;8.248;2023-08-31T05:45:43;22.70;50.00
30148;DHT22;16960;49.404;8.248;2023-08-31T05:48:09;22.70;50.00
30148;DHT22;16960;49.404;8.248;2023-08-31T05:50:36;22.80;49.90
30148;DHT22;16960;49.404;8.248;2023-08-31T05:53:04;22.80;49.90
30148;DHT22;16960;49.404;8.248;2023-08-31T05:55:32;22.80;49.80
30148;DHT22;16960;49.404;8.248;2023-08-31T05:57:59;22.70;49.80
30148;DHT22;16960;49.404;8.248;2023-08-31T06:00:26;22.80;49.80
30148;DHT22;16960;49.404;8.248;2023-08-31T06:02:53;22.70;49.90
30148;DHT22;16960;49.404;8.248;2023-08-31T06:05:20;22.80;50.00
30148;DHT22;16960;49.404;8.248;2023-08-31T06:07:47;22.70;50.00
30148;DHT22;16960;49.404;8.248;2023-08-31T06:10:14;22.80;49.90
30148;DHT22;16960;49.404;8.248;2023-08-31T06:12:42;22.90;49.90
30148;DHT22;16960;49.404;8.248;2023-08-31T06:15:09;22.90;49.80
30148;DHT22;16960;49.404;8.248;2023-08-31T06:17:37;22.90;49.40
30148;DHT22;16960;49.404;8.248;2023-08-31T06:20:05;22.90;49.10
30148;DHT22;16960;49.404;8.248;2023-08-31T06:22:32;22.90;49.00
30148;DHT22;16960;49.404;8.248;2023-08-31T06:24:59;23.00;49.00
30148;DHT22;16960;49.404;8.248;2023-08-31T06:27:26;23.00;48.90
30148;DHT22;16960;49.404;8.248;2023-08-31T06:29:54;23.00;48.70
30148;DHT22;16960;49.404;8.248;2023-08-31T06:32:21;23.00;48.60
30148;DHT22;16960;49.404;8.248;2023-08-31T06:34:48;23.00;48.60
30148;DHT22;16960;49.404;8.248;2023-08-31T06:37:15;23.00;48.20
30148;DHT22;16960;49.404;8.248;2023-08-31T06:39:42;23.10;48.30
30148;DHT22;16960;49.404;8.248;2023-08-31T06:42:09;23.10;48.40
30148;DHT22;16960;49.404;8.248;2023-08-31T06:44:36;23.10;48.30
30148;DHT22;16960;49.404;8.248;2023-08-31T06:47:04;23.10;48.20
30148;DHT22;16960;49.404;8.248;2023-08-31T06:49:31;23.10;48.10
30148;DHT22;16960;49.404;8.248;2023-08-31T06:51:59;23.10;48.00
30148;DHT22;16960;49.404;8.248;2023-08-31T06:54:26;23.10;47.70
30148;DHT22;16960;49.404;8.248;2023-08-31T06:56:53;23.10;47.70
30148;DHT22;16960;49.404;8.248;2023-08-31T06:59:20;23.10;47.40
30148;DHT22;16960;49.404;8.248;2023-08-31T07:01:47;23.10;47.40
30148;DHT22;16960;49.404;8.248;2023-08-31T07:04:15;23.10;47.10
30148;DHT22;16960;49.404;8.248;2023-08-31T07:06:42;23.10;47.10
30148;DHT22;16960;49.404;8.248;2023-08-31T07:09:09;23.10;46.90
30148;DHT22;16960;49.404;8.248;2023-08-31T07:11:36;23.10;46.80
30148;DHT22;16960;49.404;8.248;2023-08-31T07:14:03;23.10;46.80
30148;DHT22;16960;49.404;8.248;2023-08-31T07:16:30;23.10;46.80
30148;DHT22;16960;49.404;8.248;2023-08-31T07:18:57;23.20;46.70
30148;DHT22;16960;49.404;8.248;2023-08-31T07:21:25;23.20;46.50
30148;DHT22;16960;49.404;8.248;2023-08-31T07:23:53;23.20;46.40
30148;DHT22;16960;49.404;8.248;2023-08-31T07:26:20;23.20;46.20
30148;DHT22;16960;49.404;8.248;2023-08-31T07:28:47;23.20;46.20
30148;DHT22;16960;49.404;8.248;2023-08-31T07:31:14;23.20;46.00
30148;DHT22;16960;49.404;8.248;2023-08-31T07:33:42;23.20;46.00
30148;DHT22;16960;49.404;8.248;2023-08-31T07:36:09;23.20;46.00
30148;DHT22;16960;49.404;8.248;2023-08-31T07:38:37;23.20;46.10
30148;DHT22;16960;49.404;8.248;2023-08-31T07:41:04;23.20;46.00
30148;DHT22;16960;49.404;8.248;2023-08-31T07:43:31;23.20;46.00
30148;DHT22;16960;49.404;8.248;2023-08-31T07:45:57;23.20;46.00
30148;DHT22;16960;49.404;8.248;2023-08-31T07:48:25;23.20;46.00
30148;DHT22;16960;49.404;8.248;2023-08-31T07:50:52;23.20;45.90
30148;DHT22;16960;49.404;8.248;2023-08-31T07:53:19;23.30;46.00
30148;DHT22;16960;49.404;8.248;2023-08-31T07:55:54;23.20;45.90
30148;DHT22;16960;49.404;8.248;2023-08-31T07:58:22;23.20;45.80
30148;DHT22;16960;49.404;8.248;2023-08-31T08:00:51;23.20;45.70
30148;DHT22;16960;49.404;8.248;2023-08-31T08:03:19;23.30;45.70
30148;DHT22;16960;49.404;8.248;2023-08-31T08:05:45;23.20;45.60
30148;DHT22;16960;49.404;8.248;2023-08-31T08:08:12;23.30;45.60
30148;DHT22;16960;49.404;8.248;2023-08-31T08:10:39;23.30;45.70
30148;DHT22;16960;49.404;8.248;2023-08-31T08:13:08;23.20;45.50
30148;DHT22;16960;49.404;8.248;2023-08-31T08:15:35;23.30;45.70
30148;DHT22;16960;49.404;8.248;2023-08-31T08:18:02;23.30;45.60
30148;DHT22;16960;49.404;8.248;2023-08-31T08:20:29;23.30;45.60
30148;DHT22;16960;49.404;8.248;2023-08-31T08:22:56;23.30;45.60
30148;DHT22;16960;49.404;8.248;2023-08-31T08:25:24;23.30;45.60
30148;DHT22;16960;49.404;8.248;2023-08-31T08:27:51;23.30;45.20
30148;DHT22;16960;49.404;8.248;2023-08-31T08:30:19;23.20;45.10
30148;DHT22;16960;49.404;8.248;2023-08-31T08:32:46;23.20;45.00
30148;DHT22;16960;49.404;8.248;2023-08-31T08:35:13;23.30;45.00
30148;DHT22;16960;49.404;8.248;2023-08-31T08:37:40;23.30;45.10
30148;DHT22;16960;49.404;8.248;2023-08-31T08:40:09;23.20;44.80
30148;DHT22;16960;49.404;8.248;2023-08-31T08:42:40;23.20;44.70
30148;DHT22;16960;49.404;8.248;2023-08-31T08:45:09;23.30;44.50
30148;DHT22;16960;49.404;8.248;2023-08-31T08:47:42;23.30;44.50
30148;DHT22;16960;49.404;8.248;2023-08-31T08:50:10;23.30;44.40
30148;DHT22;16960;49.404;8.248;2023-08-31T08:52:38;23.30;44.70
30148;DHT22;16960;49.404;8.248;2023-08-31T08:55:06;23.30;45.10
30148;DHT22;16960;49.404;8.248;2023-08-31T08:57:33;23.30;45.10
30148;DHT22;16960;49.404;8.248;2023-08-31T09:00:00;23.30;45.10
30148;DHT22;16960;49.404;8.248;2023-08-31T09:02:27;23.30;44.90
30148;DHT22;16960;49.404;8.248;2023-08-31T09:04:55;23.30;44.90
30148;DHT22;16960;49.404;8.248;2023-08-31T09:07:22;23.40;44.50
30148;DHT22;16960;49.404;8.248;2023-08-31T09:09:50;23.40;44.50
30148;DHT22;16960;49.404;8.248;2023-08-31T09:12:17;23.30;44.10
30148;DHT22;16960;49.404;8.248;2023-08-31T09:14:57;23.40;44.10
30148;DHT22;16960;49.404;8.248;2023-08-31T09:17:24;23.40;44.20
30148;DHT22;16960;49.404;8.248;2023-08-31T09:20:00;23.40;44.30
30148;DHT22;16960;49.404;8.248;2023-08-31T09:22:29;23.40;44.60
30148;DHT22;16960;49.404;8.248;2023-08-31T09:24:56;23.50;44.80
30148;DHT22;16960;49.404;8.248;2023-08-31T09:27:23;23.50;44.90
30148;DHT22;16960;49.404;8.248;2023-08-31T09:29:50;23.50;44.60
30148;DHT22;16960;49.404;8.248;2023-08-31T09:32:17;23.50;44.30
30148;DHT22;16960;49.404;8.248;2023-08-31T09:34:45;23.50;43.80
30148;DHT22;16960;49.404;8.248;2023-08-31T09:37:15;23.50;43.80
30148;DHT22;16960;49.404;8.248;2023-08-31T09:39:42;23.50;44.10
30148;DHT22;16960;49.404;8.248;2023-08-31T09:42:09;23.50;44.20
30148;DHT22;16960;49.404;8.248;2023-08-31T09:44:40;23.50;44.40
30148;DHT22;16960;49.404;8.248;2023-08-31T09:47:09;23.50;44.20
30148;DHT22;16960;49.404;8.248;2023-08-31T09:49:37;23.50;43.80
30148;DHT22;16960;49.404;8.248;2023-08-31T09:52:05;23.50;43.70
30148;DHT22;16960;49.404;8.248;2023-08-31T09:54:35;23.60;43.60
30148;DHT22;16960;49.404;8.248;2023-08-31T09:57:02;23.60;43.40
30148;DHT22;16960;49.404;8.248;2023-08-31T09:59:29;23.60;43.00
30148;DHT22;16960;49.404;8.248;2023-08-31T10:02:00;23.60;42.90
30148;DHT22;16960;49.404;8.248;2023-08-31T10:04:29;23.60;42.10
30148;DHT22;16960;49.404;8.248;2023-08-31T10:06:58;23.70;41.80
30148;DHT22;16960;49.404;8.248;2023-08-31T10:09:26;23.70;41.70
30148;DHT22;16960;49.404;8.248;2023-08-31T10:11:56;23.70;41.50
30148;DHT22;16960;49.404;8.248;2023-08-31T10:14:23;23.70;41.70
30148;DHT22;16960;49.404;8.248;2023-08-31T10:16:50;23.80;41.60
30148;DHT22;16960;49.404;8.248;2023-08-31T10:19:19;23.80;41.20
30148;DHT22;16960;49.404;8.248;2023-08-31T10:21:46;23.90;41.00
30148;DHT22;16960;49.404;8.248;2023-08-31T10:24:13;23.80;40.50
30148;DHT22;16960;49.404;8.248;2023-08-31T10:26:40;23.90;40.60
30148;DHT22;16960;49.404;8.248;2023-08-31T10:29:25;23.90;41.10
30148;DHT22;16960;49.404;8.248;2023-08-31T10:31:53;23.90;41.30
30148;DHT22;16960;49.404;8.248;2023-08-31T10:34:34;23.90;41.10
30148;DHT22;16960;49.404;8.248;2023-08-31T10:37:01;23.90;41.20
30148;DHT22;16960;49.404;8.248;2023-08-31T10:39:37;23.90;41.30
30148;DHT22;16960;49.404;8.248;2023-08-31T10:42:04;23.90;41.60
30148;DHT22;16960;49.404;8.248;2023-08-31T10:44:34;24.00;41.30
30148;DHT22;16960;49.404;8.248;2023-08-31T10:47:03;24.00;41.20
30148;DHT22;16960;49.404;8.248;2023-08-31T10:49:30;24.00;40.90
30148;DHT22;16960;49.404;8.248;2023-08-31T10:52:15;24.00;40.70
30148;DHT22;16960;49.404;8.248;2023-08-31T10:54:43;24.00;40.60
30148;DHT22;16960;49.404;8.248;2023-08-31T10:57:10;24.00;40.30
30148;DHT22;16960;49.404;8.248;2023-08-31T10:59:43;24.00;40.40
30148;DHT22;16960;49.404;8.248;2023-08-31T11:02:26;24.00;40.10
30148;DHT22;16960;49.404;8.248;2023-08-31T11:04:55;24.00;40.30
30148;DHT22;16960;49.404;8.248;2023-08-31T11:07:24;24.10;40.70
30148;DHT22;16960;49.404;8.248;2023-08-31T11:09:52;24.10;40.60
30148;DHT22;16960;49.404;8.248;2023-08-31T11:12:22;24.10;40.80
30148;DHT22;16960;49.404;8.248;2023-08-31T11:14:50;24.10;40.70
30148;DHT22;16960;49.404;8.248;2023-08-31T11:17:17;24.10;40.90
30148;DHT22;16960;49.404;8.248;2023-08-31T11:19:44;24.10;40.90
30148;DHT22;16960;49.404;8.248;2023-08-31T11:22:11;24.20;40.90
30148;DHT22;16960;49.404;8.248;2023-08-31T11:24:38;24.10;41.40
30148;DHT22;16960;49.404;8.248;2023-08-31T11:27:08;24.20;41.60
30148;DHT22;16960;49.404;8.248;2023-08-31T11:29:37;24.20;41.70
30148;DHT22;16960;49.404;8.248;2023-08-31T11:32:07;24.20;41.50
30148;DHT22;16960;49.404;8.248;2023-08-31T11:34:34;24.20;41.30
30148;DHT22;16960;49.404;8.248;2023-08-31T11:37:03;24.20;41.20
30148;DHT22;16960;49.404;8.248;2023-08-31T11:39:30;24.20;41.30
30148;DHT22;16960;49.404;8.248;2023-08-31T11:41:58;24.30;41.70
30148;DHT22;16960;49.404;8.248;2023-08-31T11:44:25;24.30;41.70
30148;DHT22;16960;49.404;8.248;2023-08-31T11:46:52;24.30;41.60
30148;DHT22;16960;49.404;8.248;2023-08-31T11:49:21;24.40;41.30
30148;DHT22;16960;49.404;8.248;2023-08-31T11:51:49;24.30;41.40
30148;DHT22;16960;49.404;8.248;2023-08-31T11:54:17;24.40;41.60
30148;DHT22;16960;49.404;8.248;2023-08-31T11:56:45;24.40;41.70
30148;DHT22;16960;49.404;8.248;2023-08-31T11:59:16;24.40;41.70
30148;DHT22;16960;49.404;8.248;2023-08-31T12:01:44;24.40;41.50
30148;DHT22;16960;49.404;8.248;2023-08-31T12:04:13;24.50;41.50
30148;DHT22;16960;49.404;8.248;2023-08-31T12:06:46;24.50;41.50
30148;DHT22;16960;49.404;8.248;2023-08-31T12:09:13;24.50;41.60
30148;DHT22;16960;49.404;8.248;2023-08-31T12:11:40;24.50;41.50
30148;DHT22;16960;49.404;8.248;2023-08-31T12:14:18;24.60;41.40
30148;DHT22;16960;49.404;8.248;2023-08-31T12:16:46;24.60;41.30
30148;DHT22;16960;49.404;8.248;2023-08-31T12:19:13;24.70;41.50
30148;DHT22;16960;49.404;8.248;2023-08-31T12:21:41;24.70;41.60
30148;DHT22;16960;49.404;8.248;2023-08-31T12:24:10;24.70;41.50
30148;DHT22;16960;49.404;8.248;2023-08-31T12:26:37;24.70;41.50
30148;DHT22;16960;49.404;8.248;2023-08-31T12:29:04;24.70;41.60
30148;DHT22;16960;49.404;8.248;2023-08-31T12:31:31;24.80;41.60
30148;DHT22;16960;49.404;8.248;2023-08-31T12:33:59;24.80;41.60
30148;DHT22;16960;49.404;8.248;2023-08-31T12:36:30;24.80;41.50
30148;DHT22;16960;49.404;8.248;2023-08-31T12:38:57;24.80;41.10
30148;DHT22;16960;49.404;8.248;2023-08-31T12:41:28;24.80;41.20
30148;DHT22;16960;49.404;8.248;2023-08-31T12:43:55;24.90;41.00
30148;DHT22;16960;49.404;8.248;2023-08-31T12:46:23;24.90;40.90
30148;DHT22;16960;49.404;8.248;2023-08-31T12:48:50;25.00;40.90
30148;DHT22;16960;49.404;8.248;2023-08-31T12:51:18;25.00;41.10
30148;DHT22;16960;49.404;8.248;2023-08-31T12:53:45;25.00;41.10
30148;DHT22;16960;49.404;8.248;2023-08-31T12:56:13;25.00;40.90
30148;DHT22;16960;49.404;8.248;2023-08-31T12:58:48;25.10;40.60
30148;DHT22;16960;49.404;8.248;2023-08-31T13:01:15;25.10;40.30
30148;DHT22;16960;49.404;8.248;2023-08-31T13:03:42;25.20;40.50
30148;DHT22;16960;49.404;8.248;2023-08-31T13:06:09;25.20;40.60
30148;DHT22;16960;49.404;8.248;2023-08-31T13:08:36;25.20;40.30
30148;DHT22;16960;49.404;8.248;2023-08-31T13:11:02;25.20;40.10
30148;DHT22;16960;49.404;8.248;2023-08-31T13:13:30;25.20;39.80
30148;DHT22;16960;49.404;8.248;2023-08-31T13:15:59;25.20;39.70
30148;DHT22;16960;49.404;8.248;2023-08-31T13:18:26;25.20;39.80
30148;DHT22;16960;49.404;8.248;2023-08-31T13:20:54;25.20;40.10
30148;DHT22;16960;49.404;8.248;2023-08-31T13:23:22;25.20;40.20
30148;DHT22;16960;49.404;8.248;2023-08-31T13:25:49;25.20;40.20
30148;DHT22;16960;49.404;8.248;2023-08-31T13:28:17;25.20;40.30
30148;DHT22;16960;49.404;8.248;2023-08-31T13:30:44;25.20;40.90
30148;DHT22;16960;49.404;8.248;2023-08-31T13:33:13;25.30;40.60
30148;DHT22;16960;49.404;8.248;2023-08-31T13:35:40;25.20;40.50
30148;DHT22;16960;49.404;8.248;2023-08-31T13:38:07;25.20;40.40
30148;DHT22;16960;49.404;8.248;2023-08-31T13:40:34;25.30;40.30
30148;DHT22;16960;49.404;8.248;2023-08-31T13:43:02;25.30;40.30
30148;DHT22;16960;49.404;8.248;2023-08-31T13:45:30;25.30;40.40
30148;DHT22;16960;49.404;8.248;2023-08-31T13:47:57;25.30;40.40
30148;DHT22;16960;49.404;8.248;2023-08-31T13:50:27;25.30;40.60
30148;DHT22;16960;49.404;8.248;2023-08-31T13:52:54;25.30;40.30
30148;DHT22;16960;49.404;8.248;2023-08-31T13:55:21;25.40;40.30
30148;DHT22;16960;49.404;8.248;2023-08-31T13:57:49;25.40;40.30
30148;DHT22;16960;49.404;8.248;2023-08-31T14:00:16;25.40;39.60
30148;DHT22;16960;49.404;8.248;2023-08-31T14:02:43;25.30;39.40
30148;DHT22;16960;49.404;8.248;2023-08-31T14:05:10;25.40;39.50
30148;DHT22;16960;49.404;8.248;2023-08-31T14:07:39;25.40;39.40
30148;DHT22;16960;49.404;8.248;2023-08-31T14:10:06;25.40;39.30
30148;DHT22;16960;49.404;8.248;2023-08-31T14:12:34;25.40;39.40
30148;DHT22;16960;49.404;8.248;2023-08-31T14:15:01;25.40;39.40
30148;DHT22;16960;49.404;8.248;2023-08-31T14:17:29;25.40;39.20
30148;DHT22;16960;49.404;8.248;2023-08-31T14:19:58;25.40;39.00
30148;DHT22;16960;49.404;8.248;2023-08-31T14:22:25;25.40;39.00
30148;DHT22;16960;49.404;8.248;2023-08-31T14:24:55;25.40;39.70
30148;DHT22;16960;49.404;8.248;2023-08-31T14:27:22;25.40;39.20
30148;DHT22;16960;49.404;8.248;2023-08-31T14:29:49;25.40;39.40
30148;DHT22;16960;49.404;8.248;2023-08-31T14:32:16;25.40;39.30
30148;DHT22;16960;49.404;8.248;2023-08-31T14:34:43;25.40;39.00
30148;DHT22;16960;49.404;8.248;2023-08-31T14:37:10;25.40;39.50
30148;DHT22;16960;49.404;8.248;2023-08-31T14:39:37;25.40;39.20
30148;DHT22;16960;49.404;8.248;2023-08-31T14:42:05;25.40;39.40
30148;DHT22;16960;49.404;8.248;2023-08-31T14:44:33;25.40;39.60
30148;DHT22;16960;49.404;8.248;2023-08-31T14:47:00;25.40;39.70
30148;DHT22;16960;49.404;8.248;2023-08-31T14:49:27;25.40;39.90
30148;DHT22;16960;49.404;8.248;2023-08-31T14:51:54;25.40;40.00
30148;DHT22;16960;49.404;8.248;2023-08-31T14:54:21;25.40;40.00
30148;DHT22;16960;49.404;8.248;2023-08-31T14:56:49;25.40;40.20
30148;DHT22;16960;49.404;8.248;2023-08-31T14:59:17;25.40;40.30
30148;DHT22;16960;49.404;8.248;2023-08-31T15:01:44;25.40;40.40
30148;DHT22;16960;49.404;8.248;2023-08-31T15:04:12;25.40;40.60
30148;DHT22;16960;49.404;8.248;2023-08-31T15:06:39;25.40;40.50
30148;DHT22;16960;49.404;8.248;2023-08-31T15:09:06;25.40;40.50
30148;DHT22;16960;49.404;8.248;2023-08-31T15:11:33;25.40;40.70
30148;DHT22;16960;49.404;8.248;2023-08-31T15:14:00;25.40;40.70
30148;DHT22;16960;49.404;8.248;2023-08-31T15:16:28;25.30;40.90
30148;DHT22;16960;49.404;8.248;2023-08-31T15:18:55;25.40;41.10
30148;DHT22;16960;49.404;8.248;2023-08-31T15:21:22;25.30;41.10
30148;DHT22;16960;49.404;8.248;2023-08-31T15:23:49;25.40;41.10
30148;DHT22;16960;49.404;8.248;2023-08-31T15:26:16;25.40;41.10
30148;DHT22;16960;49.404;8.248;2023-08-31T15:28:43;25.40;41.10
30148;DHT22;16960;49.404;8.248;2023-08-31T15:31:12;25.40;40.60
30148;DHT22;16960;49.404;8.248;2023-08-31T15:33:40;25.40;40.40
30148;DHT22;16960;49.404;8.248;2023-08-31T15:36:08;25.40;40.40